createdAt,value
2019-05-17T00:01:46.865Z,13.40
2019-05-17T00:04:16.596Z,16.57
2019-05-17T00:06:44.847Z,7.85
2019-05-17T00:09:11.938Z,2.75
2019-05-17T00:11:38.900Z,6.33
2019-05-17T00:14:06.418Z,11.55
2019-05-17T00:16:33.549Z,7.33
2019-05-17T00:19:01.460Z,6.83
2019-05-17T00:21:28.459Z,7.28
2019-05-17T00:23:57.235Z,6.72
2019-05-17T00:26:26.795Z,8.58
2019-05-17T00:28:53.245Z,8.98
2019-05-17T00:31:20.277Z,15.32
2019-05-17T00:33:47.454Z,17.02
2019-05-17T00:36:14.504Z,36.08
2019-05-17T00:38:48.094Z,16.37
2019-05-17T00:41:10.349Z,33.53
2019-05-17T00:43:37.470Z,11.22
2019-05-17T00:46:06.497Z,41.63
2019-05-17T00:48:33.413Z,44.08
2019-05-17T00:51:02.282Z,43.33
2019-05-17T00:53:29.289Z,71.77
2019-05-17T00:55:57.300Z,109.72
2019-05-17T00:58:26.284Z,95.72
2019-05-17T01:00:53.498Z,69.90
2019-05-17T01:03:20.520Z,47.50
2019-05-17T01:05:47.493Z,119.02
2019-05-17T01:08:14.541Z,90.22
2019-05-17T01:10:41.591Z,80.57
2019-05-17T01:13:08.760Z,71.37
2019-05-17T01:15:36.884Z,84.87
2019-05-17T01:18:06.894Z,56.75
2019-05-17T01:20:36.474Z,29.77
2019-05-17T01:23:03.189Z,32.40
2019-05-17T01:25:30.178Z,36.23
2019-05-17T01:27:58.140Z,38.98
2019-05-17T01:30:26.606Z,61.80
2019-05-17T01:32:53.996Z,75.70
2019-05-17T01:35:21.168Z,52.13
2019-05-17T01:37:48.306Z,68.33
2019-05-17T01:40:17.632Z,67.10
2019-05-17T01:42:46.457Z,45.65
2019-05-17T01:45:16.446Z,11.40
2019-05-17T01:47:43.062Z,10.18
2019-05-17T01:50:11.375Z,8.15
2019-05-17T01:52:38.544Z,6.35
2019-05-17T01:55:07.013Z,11.12
2019-05-17T01:57:34.058Z,10.05
2019-05-17T02:00:01.273Z,8.13
2019-05-17T02:02:31.090Z,9.20
2019-05-17T02:04:58.260Z,10.53
2019-05-17T02:07:26.742Z,10.32
2019-05-17T02:09:56.702Z,8.93
2019-05-17T02:12:22.988Z,11.80
2019-05-17T02:14:50.573Z,8.30
2019-05-17T02:17:17.619Z,9.93
2019-05-17T02:19:46.459Z,12.68
2019-05-17T02:22:13.479Z,7.80
2019-05-17T02:24:40.513Z,7.90
2019-05-17T02:27:08.802Z,6.72
2019-05-17T02:29:35.834Z,8.25
2019-05-17T02:32:03.897Z,9.50
2019-05-17T02:34:33.797Z,8.68
2019-05-17T02:37:03.112Z,3.42
2019-05-17T02:39:32.722Z,8.88
2019-05-17T02:42:02.541Z,9.40
2019-05-17T02:44:28.155Z,11.88
2019-05-17T02:46:55.251Z,13.88
2019-05-17T02:49:23.518Z,9.53
2019-05-17T02:51:52.749Z,9.18
2019-05-17T02:54:19.728Z,9.10
2019-05-17T02:56:47.583Z,9.33
2019-05-17T02:59:14.629Z,9.95
2019-05-17T03:01:44.191Z,8.20
2019-05-17T03:04:13.023Z,10.45
2019-05-17T03:06:39.278Z,8.68
2019-05-17T03:09:06.430Z,8.15
2019-05-17T03:11:34.251Z,8.08
2019-05-17T03:14:04.142Z,9.18
2019-05-17T03:16:33.573Z,7.95
2019-05-17T03:18:58.984Z,10.58
2019-05-17T03:21:27.035Z,9.08
2019-05-17T03:23:54.179Z,8.28
2019-05-17T03:26:23.136Z,10.32
2019-05-17T03:28:53.595Z,8.85
2019-05-17T03:31:19.267Z,8.48
2019-05-17T03:33:46.726Z,7.33
2019-05-17T03:36:16.938Z,12.82
2019-05-17T03:38:43.468Z,16.25
2019-05-17T03:41:22.225Z,10.93
2019-05-17T03:43:44.287Z,10.53
2019-05-17T03:46:13.599Z,11.78
2019-05-17T03:48:39.357Z,10.80
2019-05-17T03:51:06.364Z,11.18
2019-05-17T03:53:33.715Z,14.70
2019-05-17T03:56:02.927Z,10.45
2019-05-17T03:58:33.054Z,9.20
2019-05-17T04:00:58.513Z,9.68
2019-05-17T04:03:25.700Z,8.65
2019-05-17T04:05:52.955Z,5.87
2019-05-17T04:08:22.957Z,9.93
2019-05-17T04:10:52.708Z,9.88
2019-05-17T04:13:18.892Z,11.43
2019-05-17T04:15:45.925Z,11.63
2019-05-17T04:18:13.338Z,10.20
2019-05-17T04:20:43.091Z,10.38
2019-05-17T04:23:12.496Z,10.85
2019-05-17T04:25:38.888Z,8.35
2019-05-17T04:28:06.216Z,15.83
2019-05-17T04:30:33.359Z,12.63
2019-05-17T04:33:03.586Z,10.75
2019-05-17T04:35:32.463Z,12.90
2019-05-17T04:37:58.577Z,12.75
2019-05-17T04:40:25.679Z,15.05
2019-05-17T04:42:52.905Z,18.27
2019-05-17T04:45:23.117Z,16.05
2019-05-17T04:47:48.882Z,15.03
2019-05-17T04:50:16.627Z,14.00
2019-05-17T04:52:43.764Z,12.60
2019-05-17T04:55:13.319Z,10.72
2019-05-17T04:57:43.298Z,9.60
2019-05-17T05:00:12.686Z,11.45
2019-05-17T05:02:38.223Z,12.13
2019-05-17T05:05:05.401Z,7.47
2019-05-17T05:07:33.649Z,10.13
2019-05-17T05:10:02.943Z,8.85
2019-05-17T05:12:29.722Z,8.90
2019-05-17T05:14:56.880Z,9.05
2019-05-17T05:17:23.920Z,11.45
2019-05-17T05:19:53.021Z,5.58
2019-05-17T05:22:22.360Z,9.90
2019-05-17T05:24:48.700Z,7.83
2019-05-17T05:27:15.715Z,9.40
2019-05-17T05:29:42.887Z,9.35
2019-05-17T05:32:11.835Z,9.05
2019-05-17T05:34:38.935Z,10.65
2019-05-17T05:37:06.045Z,10.35
2019-05-17T05:39:33.086Z,10.55
2019-05-17T05:42:07.816Z,10.98
2019-05-17T05:44:29.018Z,11.40
2019-05-17T05:46:56.015Z,11.70
2019-05-17T05:49:23.132Z,9.73
2019-05-17T05:51:52.275Z,9.28
2019-05-17T05:54:19.027Z,11.30
2019-05-17T05:56:46.067Z,6.62
2019-05-17T05:59:13.175Z,10.23
2019-05-17T06:01:42.121Z,9.43
2019-05-17T06:04:11.597Z,7.83
2019-05-17T06:06:37.963Z,9.23
2019-05-17T06:09:07.330Z,9.10
2019-05-17T06:11:34.390Z,7.00
2019-05-17T06:14:01.777Z,7.53
2019-05-17T06:16:29.030Z,6.03
2019-05-17T06:18:56.128Z,5.92
2019-05-17T06:21:23.165Z,5.65
2019-05-17T06:23:51.608Z,4.40
2019-05-17T06:26:18.802Z,4.25
2019-05-17T06:28:45.896Z,7.08
2019-05-17T06:31:15.209Z,4.08
2019-05-17T06:33:42.302Z,3.90
2019-05-17T06:36:09.611Z,3.92
2019-05-17T06:38:36.760Z,4.87
2019-05-17T06:41:03.931Z,5.70
2019-05-17T06:43:32.348Z,7.08
2019-05-17T06:46:01.805Z,5.50
2019-05-17T06:48:28.714Z,4.22
2019-05-17T06:50:55.934Z,4.75
2019-05-17T06:53:23.096Z,6.70
2019-05-17T06:55:50.275Z,4.03
2019-05-17T06:58:17.354Z,4.45
2019-05-17T07:00:45.236Z,3.85
2019-05-17T07:03:12.250Z,5.10
2019-05-17T07:05:41.195Z,5.15
2019-05-17T07:08:10.727Z,4.85
2019-05-17T07:10:39.633Z,6.80
2019-05-17T07:13:05.909Z,6.35
2019-05-17T07:15:43.699Z,5.80
2019-05-17T07:18:01.821Z,4.70
2019-05-17T07:20:29.929Z,7.42
2019-05-17T07:23:00.415Z,5.37
2019-05-17T07:25:30.367Z,4.60
2019-05-17T07:28:00.480Z,5.83
2019-05-17T07:30:27.874Z,5.83
2019-05-17T07:32:55.075Z,4.35
2019-05-17T07:35:22.312Z,4.60
2019-05-17T07:37:50.085Z,5.00
2019-05-17T07:40:19.876Z,5.95
2019-05-17T07:43:06.693Z,4.95
2019-05-17T07:45:21.909Z,5.15
2019-05-17T07:47:49.518Z,5.95
2019-05-17T07:50:20.070Z,5.08
2019-05-17T07:52:47.309Z,5.50
2019-05-17T07:55:14.372Z,6.03
2019-05-17T07:57:41.499Z,5.47
2019-05-17T08:00:10.287Z,4.30
2019-05-17T08:02:40.204Z,4.62
2019-05-17T08:05:10.061Z,5.33
2019-05-17T08:07:36.977Z,4.08
2019-05-17T08:10:07.397Z,6.08
2019-05-17T08:12:34.378Z,5.10
2019-05-17T08:15:01.436Z,8.03
2019-05-17T08:17:30.418Z,5.50
2019-05-17T08:19:57.263Z,5.90
2019-05-17T08:22:24.378Z,5.85
2019-05-17T08:24:51.421Z,6.87
2019-05-17T08:27:20.106Z,5.05
2019-05-17T08:29:49.750Z,5.15
2019-05-17T08:32:21.744Z,6.25
2019-05-17T08:34:51.810Z,4.75
2019-05-17T08:37:20.490Z,5.08
2019-05-17T08:39:47.510Z,3.12
2019-05-17T08:42:17.019Z,4.42
2019-05-17T08:44:44.209Z,6.30
2019-05-17T08:47:11.368Z,1.60
2019-05-17T08:49:40.342Z,1.80
2019-05-17T08:52:09.778Z,2.17
2019-05-17T08:54:36.438Z,2.05
2019-05-17T08:57:05.969Z,2.17
2019-05-17T08:59:32.996Z,2.25
2019-05-17T09:02:00.230Z,2.90
2019-05-17T09:04:29.636Z,2.08
2019-05-17T09:06:56.342Z,2.83
2019-05-17T09:09:23.379Z,3.65
2019-05-17T09:11:50.407Z,2.40
2019-05-17T09:14:17.419Z,2.62
2019-05-17T09:16:44.568Z,5.15
2019-05-17T09:19:12.367Z,1.35
2019-05-17T09:21:39.850Z,1.87
2019-05-17T09:24:06.994Z,2.75
2019-05-17T09:26:34.168Z,2.05
2019-05-17T09:29:01.696Z,2.80
2019-05-17T09:31:29.832Z,4.05
2019-05-17T09:33:57.124Z,1.60
2019-05-17T09:36:24.319Z,2.92
2019-05-17T09:38:51.372Z,1.95
2019-05-17T09:41:20.062Z,2.72
2019-05-17T09:43:49.539Z,4.22
2019-05-17T09:46:16.320Z,1.45
2019-05-17T09:48:46.511Z,3.65
2019-05-17T09:51:12.157Z,3.75
2019-05-17T09:53:41.499Z,1.90
2019-05-17T09:56:09.876Z,3.92
2019-05-17T09:58:39.521Z,2.65
2019-05-17T10:01:06.032Z,2.72
2019-05-17T10:03:33.022Z,2.92
2019-05-17T10:06:00.694Z,6.37
2019-05-17T10:08:27.925Z,3.00
2019-05-17T10:11:05.981Z,3.00
2019-05-17T10:13:24.795Z,6.42
2019-05-17T10:15:53.152Z,7.60
2019-05-17T10:18:20.408Z,5.47
2019-05-17T10:20:47.556Z,4.50
2019-05-17T10:23:15.780Z,4.75
2019-05-17T10:25:42.932Z,5.15
2019-05-17T10:28:12.435Z,3.92
2019-05-17T10:30:40.019Z,4.87
2019-05-17T10:33:09.571Z,4.15
2019-05-17T10:35:36.228Z,3.40
2019-05-17T10:38:03.493Z,3.92
2019-05-17T10:40:30.757Z,6.97
2019-05-17T10:43:00.734Z,6.17
2019-05-17T10:45:30.337Z,6.12
2019-05-17T10:47:56.959Z,5.25
2019-05-17T10:50:24.163Z,5.90
2019-05-17T10:52:51.314Z,9.50
2019-05-17T10:55:19.951Z,4.30
2019-05-17T10:57:49.739Z,7.03
2019-05-17T11:00:19.553Z,4.62
2019-05-17T11:02:46.081Z,3.87
2019-05-17T11:05:13.193Z,12.95
2019-05-17T11:07:40.305Z,4.95
2019-05-17T11:10:12.197Z,6.67
2019-05-17T11:12:39.643Z,5.05
2019-05-17T11:15:11.808Z,5.20
2019-05-17T11:17:35.891Z,5.40
2019-05-17T11:20:07.572Z,5.42
2019-05-17T11:22:34.737Z,5.58
2019-05-17T11:25:02.812Z,5.70
2019-05-17T11:27:29.844Z,3.72
2019-05-17T11:29:57.730Z,5.70
2019-05-17T11:32:24.834Z,4.55
2019-05-17T11:34:51.881Z,4.87
2019-05-17T11:37:19.068Z,5.97
2019-05-17T11:39:46.085Z,4.28
2019-05-17T11:42:13.120Z,5.45
2019-05-17T11:44:40.151Z,3.62
2019-05-17T11:47:07.257Z,4.40
2019-05-17T11:49:34.293Z,5.40
2019-05-17T11:52:01.413Z,5.22
2019-05-17T11:54:28.439Z,4.67
2019-05-17T11:56:55.431Z,6.85
2019-05-17T11:59:22.444Z,9.63
2019-05-17T12:01:49.618Z,6.72
2019-05-17T12:04:16.915Z,5.35
2019-05-17T12:06:43.986Z,8.90
2019-05-17T12:09:10.993Z,7.28
2019-05-17T12:11:38.124Z,5.42
2019-05-17T12:14:05.222Z,7.40
2019-05-17T12:16:32.326Z,6.83
2019-05-17T12:18:59.301Z,6.42
2019-05-17T12:21:26.402Z,8.55
2019-05-17T12:23:53.407Z,7.90
2019-05-17T12:26:20.542Z,9.85
2019-05-17T12:28:48.366Z,9.45
2019-05-17T12:31:15.486Z,8.00
2019-05-17T12:33:42.619Z,11.05
2019-05-17T12:36:09.823Z,13.05
2019-05-17T12:38:36.995Z,6.62
2019-05-17T12:41:04.126Z,8.68
2019-05-17T12:43:33.621Z,8.68
2019-05-17T12:46:01.800Z,7.87
2019-05-17T12:48:29.161Z,9.08
2019-05-17T12:50:56.356Z,14.70
2019-05-17T12:53:23.518Z,13.68
2019-05-17T12:55:51.433Z,7.20
2019-05-17T12:58:18.702Z,10.80
2019-05-17T13:00:45.835Z,7.85
2019-05-17T13:03:12.974Z,8.43
2019-05-17T13:05:39.978Z,8.95
2019-05-17T13:08:07.092Z,8.48
2019-05-17T13:10:34.073Z,7.25
2019-05-17T13:13:01.206Z,9.60
2019-05-17T13:15:28.187Z,7.42
2019-05-17T13:17:55.267Z,4.55
2019-05-17T13:20:22.269Z,8.18
2019-05-17T13:22:49.407Z,5.95
2019-05-17T13:25:16.382Z,5.97
2019-05-17T13:27:43.490Z,6.05
2019-05-17T13:30:10.915Z,7.78
2019-05-17T13:32:38.108Z,8.00
2019-05-17T13:35:08.999Z,7.17
2019-05-17T13:37:37.121Z,9.38
2019-05-17T13:40:09.045Z,6.03
2019-05-17T13:42:36.242Z,7.65
2019-05-17T13:45:05.908Z,7.78
2019-05-17T13:47:33.998Z,9.15
2019-05-17T13:50:01.178Z,9.78
2019-05-17T13:52:29.353Z,9.08
2019-05-17T13:54:56.462Z,16.73
2019-05-17T13:57:23.632Z,9.28
2019-05-17T13:59:50.838Z,7.42
2019-05-17T14:02:18.866Z,5.47
2019-05-17T14:04:45.998Z,6.85
2019-05-17T14:07:12.979Z,5.75
2019-05-17T14:09:40.048Z,8.33
2019-05-17T14:12:07.076Z,5.97
2019-05-17T14:14:34.134Z,7.62
2019-05-17T14:17:01.175Z,5.53
2019-05-17T14:19:28.258Z,5.70
2019-05-17T14:21:55.312Z,3.00
2019-05-17T14:24:22.399Z,7.92
2019-05-17T14:26:49.413Z,6.72
2019-05-17T14:29:16.472Z,7.22
2019-05-17T14:31:43.475Z,5.55
2019-05-17T14:34:10.642Z,5.80
2019-05-17T14:36:37.685Z,6.42
2019-05-17T14:39:05.700Z,9.13
2019-05-17T14:41:32.840Z,5.20
2019-05-17T14:44:00.029Z,7.80
2019-05-17T14:46:27.066Z,3.75
2019-05-17T14:48:54.181Z,5.22
2019-05-17T14:51:21.229Z,8.38
2019-05-17T14:53:48.343Z,5.50
2019-05-17T14:56:15.376Z,6.85
2019-05-17T14:58:42.469Z,8.10
2019-05-17T15:01:09.493Z,6.33
2019-05-17T15:03:37.412Z,8.18
2019-05-17T15:06:04.502Z,9.80
2019-05-17T15:08:32.348Z,9.60
2019-05-17T15:10:59.394Z,5.03
2019-05-17T15:13:27.330Z,8.70
2019-05-17T15:15:55.186Z,7.15
2019-05-17T15:18:22.284Z,5.75
2019-05-17T15:20:49.319Z,11.28
2019-05-17T15:23:16.422Z,11.80
2019-05-17T15:25:43.435Z,5.50
2019-05-17T15:28:10.465Z,5.47
2019-05-17T15:30:37.619Z,6.85
2019-05-17T15:33:05.516Z,7.42
2019-05-17T15:35:32.639Z,5.20
2019-05-17T15:37:59.749Z,5.45
2019-05-17T15:40:27.013Z,12.37
2019-05-17T15:42:54.143Z,8.63
2019-05-17T15:45:22.304Z,8.78
2019-05-17T15:47:49.459Z,6.62
2019-05-17T15:50:17.409Z,6.72
2019-05-17T15:52:44.444Z,7.75
2019-05-17T15:55:11.970Z,6.10
2019-05-17T15:57:38.946Z,7.67
2019-05-17T16:00:06.594Z,3.47
2019-05-17T16:02:35.065Z,13.10
2019-05-17T16:05:03.993Z,6.47
2019-05-17T16:07:31.415Z,7.70
2019-05-17T16:09:59.542Z,8.43
2019-05-17T16:12:26.688Z,6.33
2019-05-17T16:14:54.045Z,7.15
2019-05-17T16:17:21.116Z,10.63
2019-05-17T16:19:48.201Z,9.65
2019-05-17T16:22:15.237Z,4.08
2019-05-17T16:24:42.305Z,12.13
2019-05-17T16:27:09.282Z,8.90
2019-05-17T16:29:36.349Z,11.85
2019-05-17T16:32:03.363Z,5.40
2019-05-17T16:34:30.469Z,7.78
2019-05-17T16:36:57.438Z,9.50
2019-05-17T16:39:25.547Z,7.55
2019-05-17T16:41:52.605Z,8.35
2019-05-17T16:44:19.711Z,9.95
2019-05-17T16:46:48.541Z,8.03
2019-05-17T16:49:15.606Z,6.42
2019-05-17T16:51:42.626Z,14.33
2019-05-17T16:54:09.825Z,8.65
2019-05-17T16:56:36.835Z,7.60
2019-05-17T16:59:04.891Z,9.18
2019-05-17T17:01:31.944Z,7.90
2019-05-17T17:03:59.063Z,11.28
2019-05-17T17:06:29.086Z,12.53
2019-05-17T17:08:56.216Z,8.75
2019-05-17T17:11:23.256Z,6.83
2019-05-17T17:13:50.306Z,8.23
2019-05-17T17:16:20.761Z,9.18
2019-05-17T17:18:47.765Z,10.00
2019-05-17T17:21:14.799Z,11.25
2019-05-17T17:23:41.944Z,12.73
2019-05-17T17:26:08.993Z,14.13
2019-05-17T17:28:36.039Z,11.05
2019-05-17T17:31:03.431Z,12.85
2019-05-17T17:33:30.847Z,10.50
2019-05-17T17:35:57.991Z,13.08
2019-05-17T17:38:26.918Z,9.58
2019-05-17T17:40:53.967Z,14.70
2019-05-17T17:43:21.181Z,16.80
2019-05-17T17:45:48.415Z,16.82
2019-05-17T17:48:15.796Z,14.23
2019-05-17T17:50:44.617Z,13.05
2019-05-17T17:53:11.647Z,11.73
2019-05-17T17:55:38.778Z,18.10
2019-05-17T17:58:05.826Z,14.83
2019-05-17T18:00:33.220Z,16.48
2019-05-17T18:03:01.937Z,8.95
2019-05-17T18:05:31.273Z,9.40
2019-05-17T18:07:58.344Z,9.60
2019-05-17T18:10:28.570Z,13.10
2019-05-17T18:12:56.541Z,11.28
2019-05-17T18:15:36.340Z,12.37
2019-05-17T18:18:03.376Z,12.07
2019-05-17T18:20:30.327Z,12.47
2019-05-17T18:22:57.325Z,18.05
2019-05-17T18:25:27.412Z,15.98
2019-05-17T18:27:55.655Z,10.95
2019-05-17T18:30:22.905Z,18.75
2019-05-17T18:32:49.978Z,11.05
2019-05-17T18:35:17.111Z,11.43
2019-05-17T18:37:49.864Z,12.18
2019-05-17T18:40:16.986Z,9.45
2019-05-17T18:42:44.230Z,12.93
2019-05-17T18:45:11.753Z,10.08
2019-05-17T18:47:39.881Z,14.03
2019-05-17T18:50:09.089Z,13.35
2019-05-17T18:52:36.272Z,8.60
2019-05-17T18:55:06.769Z,10.70
2019-05-17T18:57:33.894Z,10.00
2019-05-17T19:00:02.041Z,9.78
2019-05-17T19:02:30.499Z,13.58
2019-05-17T19:04:57.639Z,18.17
2019-05-17T19:07:24.658Z,11.08
2019-05-17T19:09:51.871Z,10.95
2019-05-17T19:12:19.134Z,15.00
2019-05-17T19:14:48.528Z,14.73
2019-05-17T19:17:15.574Z,12.95
2019-05-17T19:19:42.644Z,15.32
2019-05-17T19:22:09.693Z,20.70
2019-05-17T19:24:36.685Z,17.30
2019-05-17T19:27:04.625Z,18.02
2019-05-17T19:29:31.652Z,11.53
2019-05-17T19:31:59.143Z,16.40
2019-05-17T19:34:26.998Z,10.40
2019-05-17T19:36:53.990Z,18.15
2019-05-17T19:39:21.089Z,15.53
2019-05-17T19:41:48.108Z,20.27
2019-05-17T19:44:15.190Z,14.58
2019-05-17T19:46:42.280Z,18.37
2019-05-17T19:49:10.056Z,20.27
2019-05-17T19:51:37.114Z,14.85
2019-05-17T19:54:04.608Z,15.72
2019-05-17T19:56:32.743Z,20.92
2019-05-17T19:58:59.908Z,10.88
2019-05-17T20:01:27.475Z,13.55
2019-05-17T20:03:55.727Z,16.90
2019-05-17T20:06:22.903Z,18.45
2019-05-17T20:08:50.052Z,13.68
2019-05-17T20:11:17.116Z,14.58
2019-05-17T20:13:44.188Z,13.60
2019-05-17T20:16:11.156Z,9.50
2019-05-17T20:18:38.204Z,17.87
2019-05-17T20:21:05.243Z,13.40
2019-05-17T20:23:32.311Z,20.10
2019-05-17T20:25:59.382Z,17.35
2019-05-17T20:28:26.544Z,16.97
2019-05-17T20:30:56.527Z,13.03
2019-05-17T20:33:24.004Z,15.32
2019-05-17T20:35:51.053Z,13.60
2019-05-17T20:38:18.032Z,14.03
2019-05-17T20:40:45.192Z,14.40
2019-05-17T20:43:12.220Z,12.65
2019-05-17T20:45:39.321Z,17.20
2019-05-17T20:48:06.440Z,15.28
2019-05-17T20:50:36.713Z,16.02
2019-05-17T20:53:17.963Z,15.43
2019-05-17T20:55:34.828Z,11.50
2019-05-17T20:58:01.892Z,20.60
2019-05-17T21:00:28.961Z,15.48
2019-05-17T21:02:56.019Z,19.05
2019-05-17T21:05:23.067Z,16.80
2019-05-17T21:07:50.043Z,17.30
2019-05-17T21:10:17.386Z,15.35
2019-05-17T21:12:45.445Z,13.58
2019-05-17T21:15:12.590Z,11.68
2019-05-17T21:17:39.566Z,19.67
2019-05-17T21:20:07.336Z,21.15
2019-05-17T21:22:34.465Z,17.17
2019-05-17T21:25:01.875Z,22.05
2019-05-17T21:27:29.932Z,20.25
2019-05-17T21:29:56.978Z,14.95
2019-05-17T21:32:24.004Z,18.35
2019-05-17T21:34:51.201Z,13.83
2019-05-17T21:37:18.189Z,15.90
2019-05-17T21:39:49.396Z,16.87
2019-05-17T21:42:18.206Z,18.35
2019-05-17T21:44:48.615Z,22.75
2019-05-17T21:47:17.428Z,19.87
2019-05-17T21:49:44.589Z,18.05
2019-05-17T21:52:11.591Z,30.05
2019-05-17T21:54:38.691Z,19.37
2019-05-17T21:57:06.567Z,20.15
2019-05-17T21:59:33.799Z,29.20
2019-05-17T22:02:00.976Z,23.45
2019-05-17T22:04:28.311Z,18.70
2019-05-17T22:06:55.335Z,24.27
2019-05-17T22:09:22.471Z,23.80
2019-05-17T22:11:51.299Z,21.97
2019-05-17T22:14:18.445Z,24.37
2019-05-17T22:16:45.506Z,20.62
2019-05-17T22:19:12.684Z,23.75
2019-05-17T22:21:42.079Z,17.50
2019-05-17T22:24:09.376Z,20.68
2019-05-17T22:26:36.500Z,22.27
2019-05-17T22:29:03.732Z,29.57
2019-05-17T22:31:30.713Z,14.43
2019-05-17T22:33:57.821Z,18.45
2019-05-17T22:36:24.977Z,15.70
2019-05-17T22:38:52.035Z,14.30
2019-05-17T22:41:19.128Z,18.15
2019-05-17T22:43:46.180Z,15.38
2019-05-17T22:46:13.296Z,10.13
2019-05-17T22:48:40.265Z,15.68
2019-05-17T22:51:07.403Z,19.65
2019-05-17T22:53:34.420Z,19.12
2019-05-17T22:56:01.495Z,25.23
2019-05-17T22:58:28.515Z,13.93
2019-05-17T23:00:55.621Z,14.28
2019-05-17T23:03:22.683Z,18.87
2019-05-17T23:05:49.730Z,12.85
2019-05-17T23:08:16.825Z,12.63
2019-05-17T23:10:43.915Z,15.43
2019-05-17T23:13:10.904Z,15.40
2019-05-17T23:15:39.742Z,10.25
2019-05-17T23:18:06.793Z,17.40
2019-05-17T23:20:33.854Z,17.27
2019-05-17T23:23:01.023Z,13.75
2019-05-17T23:25:28.161Z,11.22
2019-05-17T23:28:06.140Z,11.73
2019-05-17T23:30:33.200Z,13.83
2019-05-17T23:33:00.222Z,10.55
2019-05-17T23:35:27.322Z,8.20
2019-05-17T23:37:54.431Z,10.58
2019-05-17T23:40:22.554Z,5.30
2019-05-17T23:42:49.689Z,5.60
2019-05-17T23:45:16.806Z,6.90
2019-05-17T23:47:43.858Z,10.10
2019-05-17T23:50:10.944Z,12.95
2019-05-17T23:52:37.960Z,10.80
2019-05-17T23:55:06.052Z,13.93
2019-05-17T23:57:33.107Z,9.73
